Time;durP1;ratioP1;P1;durP2;ratioP2;P2;SDS_P1;SDS_P2;PMS_P1;PMS_P2;Temp;Humidity;BMP_temperature;BMP_pressure;BME280_temperature;BME280_humidity;BME280_pressure;Samples;Min_cycle;Max_cycle;Signal;HPM_P1;HPM_P2
2022/04/04 00:01:01;;;;;;;1.40;1.30;;;21.70;58.60;;;;;;5069807;28;20230;-63
2022/04/04 00:03:32;;;;;;;1.65;1.50;;;21.70;58.60;;;;;;5070098;28;20281;-62
2022/04/04 00:06:02;;;;;;;1.58;1.48;;;21.70;58.60;;;;;;5070680;28;20733;-65
2022/04/04 00:08:33;;;;;;;2.90;1.52;;;21.70;58.60;;;;;;5069263;28;20737;-57
2022/04/04 00:11:04;;;;;;;2.38;1.70;;;21.80;58.60;;;;;;5070145;28;20210;-56
2022/04/04 00:13:36;;;;;;;2.03;1.83;;;21.80;58.50;;;;;;5069114;28;20203;-64
2022/04/04 00:16:09;;;;;;;2.10;1.70;;;21.80;58.60;;;;;;5069286;28;20273;-59
2022/04/04 00:18:39;;;;;;;1.98;1.80;;;21.80;58.60;;;;;;5068632;28;20217;-65
2022/04/04 00:21:10;;;;;;;2.30;1.55;;;21.80;58.60;;;;;;5068920;28;20294;-61
2022/04/04 00:23:40;;;;;;;4.25;1.75;;;21.90;58.60;;;;;;5068974;28;20270;-62
2022/04/04 00:26:11;;;;;;;2.25;1.75;;;21.90;58.60;;;;;;5068600;28;20191;-62
2022/04/04 00:28:43;;;;;;;2.25;1.70;;;21.90;58.60;;;;;;5068559;28;20313;-62
2022/04/04 00:31:14;;;;;;;1.73;1.63;;;21.90;58.50;;;;;;5068969;28;20281;-60
2022/04/04 00:33:44;;;;;;;2.65;1.70;;;21.90;58.50;;;;;;5069182;28;20191;-62
2022/04/04 00:36:15;;;;;;;2.10;1.90;;;22.00;58.50;;;;;;5064033;28;20730;-63
2022/04/04 00:38:45;;;;;;;1.63;1.52;;;22.00;58.50;;;;;;5068840;28;20226;-59
2022/04/04 00:41:17;;;;;;;1.70;1.60;;;22.00;58.50;;;;;;5067107;28;20214;-63
2022/04/04 00:43:53;;;;;;;2.22;1.60;;;22.00;58.60;;;;;;5069976;28;20202;-65
2022/04/04 00:46:24;;;;;;;2.25;1.73;;;22.00;58.70;;;;;;5067146;28;20270;-63
2022/04/04 00:48:55;;;;;;;1.60;1.50;;;22.10;58.60;;;;;;5069643;28;20318;-64
2022/04/04 00:51:25;;;;;;;1.90;1.70;;;22.10;58.60;;;;;;5069403;28;20211;-62
2022/04/04 00:53:56;;;;;;;2.40;1.85;;;22.10;58.60;;;;;;5069122;28;20274;-62
2022/04/04 00:56:34;;;;;;;2.40;2.00;;;22.10;58.60;;;;;;5067092;28;20279;-60
2022/04/04 00:59:10;;;;;;;2.83;1.73;;;22.10;58.50;;;;;;5068437;28;20583;-62
2022/04/04 01:01:40;;;;;;;2.03;1.60;;;22.10;58.50;;;;;;5069119;28;20222;-65
2022/04/04 01:04:11;;;;;;;2.00;1.80;;;22.10;58.40;;;;;;5068635;28;20624;-60
2022/04/04 01:06:43;;;;;;;2.13;1.70;;;22.20;58.50;;;;;;5069972;28;20198;-64
2022/04/04 01:09:14;;;;;;;2.00;1.77;;;22.20;58.40;;;;;;5068692;28;20211;-64
2022/04/04 01:12:06;;;;;;;1.77;1.65;;;22.20;58.40;;;;;;5068880;28;20677;-59
2022/04/04 01:14:39;;;;;;;2.28;1.60;;;22.20;58.40;;;;;;5068445;28;20199;-64
2022/04/04 01:17:10;;;;;;;1.85;1.70;;;22.20;58.40;;;;;;5068581;28;20282;-64
2022/04/04 01:19:41;;;;;;;1.70;1.60;;;22.30;58.40;;;;;;5068901;28;20306;-60
2022/04/04 01:22:13;;;;;;;1.65;1.55;;;22.30;58.40;;;;;;5066887;28;20325;-63
2022/04/04 01:24:45;;;;;;;1.60;1.50;;;22.30;58.40;;;;;;5069587;28;20694;-62
2022/04/04 01:27:16;;;;;;;1.55;1.45;;;22.30;58.30;;;;;;5067980;28;20536;-57
2022/04/04 01:29:47;;;;;;;1.60;1.50;;;22.30;58.30;;;;;;5068404;28;20253;-62
2022/04/04 01:32:17;;;;;;;1.52;1.42;;;22.40;58.30;;;;;;5067776;28;20195;-59
2022/04/04 01:34:47;;;;;;;1.90;1.73;;;22.40;58.30;;;;;;5066488;28;20277;-63
2022/04/04 01:37:18;;;;;;;1.85;1.70;;;22.40;58.30;;;;;;5068788;28;20665;-62
2022/04/04 01:39:50;;;;;;;2.67;2.05;;;22.40;58.30;;;;;;5068356;28;20301;-62
2022/04/04 01:42:21;;;;;;;1.85;1.70;;;22.40;58.30;;;;;;5068064;28;20313;-57
2022/04/04 01:44:51;;;;;;;1.50;1.40;;;22.50;58.30;;;;;;5068588;28;20199;-62
2022/04/04 01:47:21;;;;;;;2.45;1.77;;;22.50;58.20;;;;;;5067300;28;20222;-64
2022/04/04 01:49:52;;;;;;;1.90;1.70;;;22.50;58.20;;;;;;5068340;28;20293;-63
2022/04/04 01:52:22;;;;;;;2.47;1.58;;;22.50;58.20;;;;;;5068983;28;20321;-61
2022/04/04 01:54:55;;;;;;;1.70;1.60;;;22.50;58.20;;;;;;5068280;28;20198;-65
2022/04/04 02:00:04;;;;;;;2.53;1.70;;;22.60;58.10;;;;;;5741969;22;20224;-53
2022/04/04 02:02:38;;;;;;;2.33;1.92;;;22.60;58.10;;;;;;5007112;28;20226;-55
2022/04/04 02:05:16;;;;;;;1.73;1.60;;;22.60;58.10;;;;;;5005030;28;20510;-55
2022/04/04 02:07:50;;;;;;;2.58;1.70;;;22.70;58.10;;;;;;5008116;28;20561;-56
2022/04/04 02:10:26;;;;;;;2.15;1.42;;;22.70;58.10;;;;;;5007319;28;20623;-56
2022/04/04 02:13:00;;;;;;;1.90;1.50;;;22.70;58.00;;;;;;5008919;28;20686;-54
2022/04/04 02:15:36;;;;;;;1.50;1.40;;;22.80;58.00;;;;;;5007452;28;20536;-55
2022/04/04 02:18:10;;;;;;;2.42;1.80;;;22.70;57.90;;;;;;5008241;28;20589;-55
2022/04/04 02:20:48;;;;;;;2.15;1.70;;;22.80;57.90;;;;;;5007850;28;20597;-55
2022/04/04 02:23:22;;;;;;;2.65;1.75;;;22.80;57.90;;;;;;5008035;28;20308;-54
2022/04/04 02:25:59;;;;;;;2.20;1.73;;;22.90;57.90;;;;;;5005068;28;20645;-56
2022/04/04 02:28:35;;;;;;;1.75;1.60;;;22.90;57.80;;;;;;5008496;28;20615;-54
2022/04/04 02:31:09;;;;;;;1.70;1.50;;;22.90;57.70;;;;;;5008295;28;20551;-56
2022/04/04 02:33:43;;;;;;;2.17;1.80;;;22.90;57.60;;;;;;5007537;28;20580;-57
2022/04/04 02:36:20;;;;;;;3.30;1.70;;;23.00;58.20;;;;;;5007644;28;20604;-53
2022/04/04 02:38:55;;;;;;;2.55;1.77;;;23.00;57.60;;;;;;5008606;28;20617;-57
2022/04/04 02:41:33;;;;;;;1.70;1.60;;;23.00;57.60;;;;;;5007776;28;20582;-56
2022/04/04 02:44:16;;;;;;;1.67;1.55;;;23.10;57.70;;;;;;5009249;28;20550;-58
2022/04/04 02:47:01;;;;;;;1.90;1.70;;;23.10;58.30;;;;;;5008407;28;20478;-56
2022/04/04 02:49:38;;;;;;;1.95;1.50;;;23.10;57.60;;;;;;5012509;28;20565;-54
2022/04/04 02:52:14;;;;;;;2.80;1.80;;;23.10;57.60;;;;;;5011840;28;20569;-56
2022/04/04 02:54:48;;;;;;;1.70;1.42;;;23.20;57.60;;;;;;5007116;28;20228;-54
2022/04/04 02:57:19;;;;;;;2.25;1.88;;;23.20;57.60;;;;;;5027812;22;20933;-60
2022/04/04 02:59:50;;;;;;;1.38;1.27;;;23.30;57.50;;;;;;5011328;28;20208;-60
2022/04/04 03:02:20;;;;;;;2.40;1.70;;;23.30;57.50;;;;;;5011317;28;20221;-59
2022/04/04 03:04:51;;;;;;;1.90;1.70;;;23.30;57.40;;;;;;5012295;28;20284;-60
2022/04/04 03:07:21;;;;;;;1.80;1.70;;;23.40;57.30;;;;;;5011598;28;20284;-60
2022/04/04 03:09:51;;;;;;;1.45;1.35;;;23.40;57.20;;;;;;5010773;28;20758;-60
2022/04/04 03:12:24;;;;;;;2.50;1.77;;;23.40;57.20;;;;;;5011330;28;20280;-60
2022/04/04 03:14:55;;;;;;;1.70;1.60;;;23.40;57.10;;;;;;5011724;28;20720;-60
2022/04/04 03:17:26;;;;;;;1.77;1.63;;;23.50;57.10;;;;;;5011493;28;20693;-59
2022/04/04 03:19:57;;;;;;;1.60;1.50;;;23.50;57.00;;;;;;5011547;28;20236;-59
2022/04/04 03:22:27;;;;;;;2.45;1.67;;;23.50;57.00;;;;;;5011094;28;20224;-60
2022/04/04 03:24:58;;;;;;;1.90;1.73;;;23.60;57.00;;;;;;5011172;28;20287;-62
2022/04/04 03:27:30;;;;;;;2.22;1.58;;;23.60;57.00;;;;;;5010997;28;20276;-61
2022/04/04 03:30:00;;;;;;;1.85;1.65;;;23.70;57.10;;;;;;5010749;28;20203;-61
2022/04/04 03:32:31;;;;;;;1.67;1.58;;;23.70;57.00;;;;;;5011140;28;20293;-62
2022/04/04 03:35:01;;;;;;;1.88;1.63;;;23.70;56.90;;;;;;5011451;28;20280;-61
2022/04/04 03:37:32;;;;;;;1.65;1.50;;;23.70;56.90;;;;;;5011132;28;20285;-61
2022/04/04 03:40:02;;;;;;;2.00;1.80;;;23.80;56.90;;;;;;5011070;28;20285;-62
2022/04/04 03:42:37;;;;;;;2.92;1.80;;;23.80;56.90;;;;;;5011381;28;20223;-61
2022/04/04 03:45:08;;;;;;;1.52;1.42;;;23.80;56.80;;;;;;5009903;28;20196;-61
2022/04/04 03:47:38;;;;;;;1.73;1.63;;;23.90;56.80;;;;;;5009349;28;20288;-62
2022/04/04 03:50:11;;;;;;;2.00;1.77;;;23.90;56.70;;;;;;5010728;28;20203;-60
2022/04/04 03:52:41;;;;;;;1.55;1.45;;;24.00;56.70;;;;;;5010130;28;20193;-61
2022/04/04 03:55:13;;;;;;;1.83;1.67;;;24.00;56.60;;;;;;5011012;28;20320;-61
2022/04/04 03:57:47;;;;;;;1.70;1.48;;;24.00;56.50;;;;;;5073525;22;20232;-62
2022/04/04 04:00:18;;;;;;;1.73;1.63;;;24.10;56.50;;;;;;4990306;28;20198;-58
2022/04/04 04:02:48;;;;;;;2.13;1.55;;;24.10;56.40;;;;;;4990451;28;20240;-57
2022/04/04 04:05:19;;;;;;;1.88;1.73;;;24.10;56.40;;;;;;4991205;28;20273;-62
2022/04/04 04:07:50;;;;;;;2.00;1.70;;;24.20;56.40;;;;;;4990189;28;20232;-59
2022/04/04 04:10:20;;;;;;;2.85;1.77;;;24.20;56.30;;;;;;4990792;28;20202;-58
2022/04/04 04:12:53;;;;;;;1.60;1.50;;;24.20;56.30;;;;;;4990247;28;20656;-60
2022/04/04 04:15:25;;;;;;;1.88;1.50;;;24.30;56.20;;;;;;4991284;28;20273;-57
2022/04/04 04:17:56;;;;;;;1.40;1.30;;;24.30;56.20;;;;;;4991105;28;20723;-62
2022/04/04 04:20:29;;;;;;;1.98;1.30;;;24.30;56.20;;;;;;4988308;28;20284;-59
2022/04/04 04:23:01;;;;;;;1.98;1.83;;;24.30;56.20;;;;;;4990938;28;20249;-54
2022/04/04 04:25:32;;;;;;;1.40;1.30;;;24.30;56.10;;;;;;4990030;28;20300;-63
2022/04/04 04:28:06;;;;;;;1.90;1.63;;;24.40;56.10;;;;;;4988126;28;20650;-60
2022/04/04 04:30:36;;;;;;;1.77;1.48;;;24.40;56.10;;;;;;4990069;28;20200;-63
2022/04/04 04:33:07;;;;;;;1.40;1.30;;;24.50;56.00;;;;;;4990498;28;20277;-56
2022/04/04 04:35:38;;;;;;;2.20;1.70;;;24.40;56.00;;;;;;4990011;28;20196;-59
2022/04/04 04:38:08;;;;;;;2.08;1.45;;;24.50;55.90;;;;;;4989950;28;20310;-60
2022/04/04 04:40:39;;;;;;;1.70;1.60;;;24.50;55.90;;;;;;4989436;28;20229;-62
2022/04/04 04:43:13;;;;;;;1.55;1.40;;;24.50;55.80;;;;;;4990681;28;20229;-59
2022/04/04 04:45:44;;;;;;;1.60;1.50;;;24.60;55.90;;;;;;4990473;28;20276;-61
2022/04/04 04:48:14;;;;;;;2.30;1.42;;;24.50;55.60;;;;;;4989236;28;20221;-59
2022/04/04 04:50:44;;;;;;;2.00;1.30;;;24.50;55.40;;;;;;4990234;28;20216;-63
2022/04/04 04:53:15;;;;;;;1.77;1.63;;;24.60;55.30;;;;;;4990055;28;20204;-55
2022/04/04 04:55:46;;;;;;;2.55;1.50;;;24.60;55.30;;;;;;4990437;28;20281;-62
2022/04/04 04:58:18;;;;;;;1.67;1.20;;;24.60;55.30;;;;;;5034132;23;20254;-58
2022/04/04 05:00:49;;;;;;;1.67;1.58;;;24.60;55.30;;;;;;5006374;28;20292;-58
2022/04/04 05:03:28;;;;;;;1.67;1.35;;;24.60;55.30;;;;;;5008613;28;20307;-57
2022/04/04 05:05:59;;;;;;;1.50;1.27;;;24.60;55.20;;;;;;5009002;28;20279;-58
2022/04/04 05:08:30;;;;;;;2.88;1.67;;;24.60;55.10;;;;;;5009348;28;20227;-58
2022/04/04 05:11:01;;;;;;;2.13;1.48;;;24.60;55.20;;;;;;5008326;28;20197;-58
2022/04/04 05:13:34;;;;;;;2.08;1.63;;;24.60;55.10;;;;;;5008946;28;20212;-59
2022/04/04 05:16:07;;;;;;;1.65;1.42;;;24.60;55.20;;;;;;5009498;28;20287;-58
2022/04/04 05:18:37;;;;;;;1.60;1.50;;;24.60;55.20;;;;;;5009696;28;20216;-59
2022/04/04 05:21:09;;;;;;;1.65;1.55;;;24.60;55.20;;;;;;5008319;28;20279;-59
2022/04/04 05:23:41;;;;;;;1.48;1.38;;;24.60;55.10;;;;;;5008773;28;20631;-59
2022/04/04 05:26:11;;;;;;;1.73;1.63;;;24.50;55.00;;;;;;5009400;28;20231;-59
2022/04/04 05:28:44;;;;;;;2.45;1.55;;;24.50;55.00;;;;;;5009105;28;20248;-58
2022/04/04 05:31:14;;;;;;;1.77;1.67;;;24.50;55.10;;;;;;5008734;28;20288;-58
2022/04/04 05:33:45;;;;;;;1.77;1.65;;;24.50;55.20;;;;;;5009093;28;20207;-59
2022/04/04 05:36:15;;;;;;;2.30;1.50;;;24.50;55.30;;;;;;5009222;28;20224;-58
2022/04/04 05:38:45;;;;;;;1.70;1.60;;;24.50;55.30;;;;;;5008689;28;20229;-59
2022/04/04 05:41:16;;;;;;;1.75;1.48;;;24.50;55.10;;;;;;5008767;28;20292;-58
2022/04/04 05:43:49;;;;;;;1.83;1.70;;;24.50;55.10;;;;;;5009116;28;20315;-59
2022/04/04 05:46:20;;;;;;;1.80;1.70;;;24.50;55.10;;;;;;5009050;28;20735;-58
2022/04/04 05:48:50;;;;;;;2.33;1.60;;;24.50;55.10;;;;;;5008368;28;20217;-58
2022/04/04 05:51:21;;;;;;;1.42;1.33;;;24.40;55.10;;;;;;5008795;28;20259;-58
2022/04/04 05:53:51;;;;;;;1.77;1.63;;;24.40;55.10;;;;;;5008576;28;20827;-59
2022/04/04 05:56:22;;;;;;;1.70;1.60;;;24.40;55.10;;;;;;5008596;28;20704;-59
2022/04/04 05:58:54;;;;;;;3.15;1.67;;;24.40;55.20;;;;;;5038800;23;20222;-61
2022/04/04 06:01:25;;;;;;;1.60;1.50;;;24.30;55.10;;;;;;5027436;28;20192;-62
2022/04/04 06:03:57;;;;;;;1.50;1.40;;;24.30;55.70;;;;;;5028166;28;20310;-62
2022/04/04 06:06:27;;;;;;;1.67;1.58;;;24.30;55.10;;;;;;5027293;28;20196;-63
2022/04/04 06:08:57;;;;;;;1.60;1.50;;;24.30;55.20;;;;;;5023383;28;20298;-63
2022/04/04 06:11:28;;;;;;;1.85;1.70;;;24.20;55.20;;;;;;5027767;28;20192;-64
2022/04/04 06:14:00;;;;;;;1.67;1.58;;;24.30;55.30;;;;;;5028142;28;20188;-63
2022/04/04 06:16:31;;;;;;;2.00;1.52;;;24.20;55.30;;;;;;5028889;28;20283;-58
2022/04/04 06:19:01;;;;;;;1.60;1.50;;;24.20;55.30;;;;;;5027509;28;20762;-63
2022/04/04 06:21:32;;;;;;;1.60;1.50;;;24.20;55.40;;;;;;5027751;28;20231;-62
2022/04/04 06:24:02;;;;;;;1.67;1.58;;;24.20;55.40;;;;;;5031622;28;20709;-65
2022/04/04 06:26:32;;;;;;;1.45;1.35;;;24.20;55.40;;;;;;5031701;28;20711;-65
2022/04/04 06:29:05;;;;;;;1.60;1.50;;;24.20;55.40;;;;;;5029642;28;20311;-61
2022/04/04 06:31:35;;;;;;;1.55;1.45;;;24.20;55.40;;;;;;5027386;28;20719;-64
2022/04/04 06:34:06;;;;;;;2.15;1.60;;;24.20;55.40;;;;;;5031145;28;20193;-64
2022/04/04 06:36:37;;;;;;;1.70;1.42;;;24.10;55.40;;;;;;5031846;28;20659;-60
2022/04/04 06:39:08;;;;;;;1.80;1.70;;;24.10;55.30;;;;;;5031744;28;20710;-63
2022/04/04 06:41:38;;;;;;;1.80;1.70;;;24.10;55.30;;;;;;5031927;28;20192;-57
2022/04/04 06:44:11;;;;;;;1.88;1.63;;;24.10;55.30;;;;;;5031423;28;20784;-59
2022/04/04 06:46:42;;;;;;;2.10;1.90;;;24.00;55.80;;;;;;5031884;28;20192;-64
2022/04/04 06:49:12;;;;;;;1.85;1.70;;;24.00;55.20;;;;;;5031659;28;20775;-57
2022/04/04 06:51:43;;;;;;;1.90;1.80;;;24.00;55.30;;;;;;5026224;28;20196;-62
2022/04/04 06:54:13;;;;;;;1.83;1.73;;;24.00;55.40;;;;;;5030834;28;20747;-65
2022/04/04 06:56:45;;;;;;;1.70;1.60;;;24.00;55.40;;;;;;5030838;28;20727;-62
2022/04/04 06:59:18;;;;;;;2.20;1.90;;;23.90;55.40;;;;;;5031480;28;20254;-60
2022/04/04 07:01:49;;;;;;;2.00;1.73;;;23.90;55.50;;;;;;5031033;28;20552;-65
2022/04/04 07:04:20;;;;;;;1.90;1.70;;;23.90;55.60;;;;;;5030993;28;20224;-63
2022/04/04 07:06:51;;;;;;;1.73;1.63;;;23.90;55.60;;;;;;5027758;28;20231;-58
2022/04/04 07:09:23;;;;;;;1.88;1.67;;;23.90;55.60;;;;;;5030604;28;20257;-61
2022/04/04 07:11:53;;;;;;;1.90;1.80;;;23.90;55.70;;;;;;5030492;28;20207;-63
2022/04/04 07:14:26;;;;;;;1.80;1.70;;;23.80;55.70;;;;;;5031352;28;20200;-64
2022/04/04 07:16:56;;;;;;;1.73;1.63;;;23.80;55.70;;;;;;5031674;28;20192;-60
2022/04/04 07:19:32;;;;;;;1.70;1.60;;;23.80;55.70;;;;;;5030510;28;20216;-62
2022/04/04 07:22:03;;;;;;;1.80;1.70;;;23.80;55.70;;;;;;5030748;28;20204;-63
2022/04/04 07:24:34;;;;;;;2.03;1.83;;;23.80;55.70;;;;;;5030437;28;20252;-66
2022/04/04 07:27:04;;;;;;;2.03;1.80;;;23.80;55.60;;;;;;5030667;28;20656;-60
2022/04/04 07:29:37;;;;;;;2.35;1.58;;;23.70;55.60;;;;;;5030220;28;20315;-62
2022/04/04 07:32:09;;;;;;;1.80;1.70;;;23.70;55.70;;;;;;5030518;28;20199;-64
2022/04/04 07:34:40;;;;;;;1.80;1.70;;;23.70;55.70;;;;;;5029496;28;20206;-58
2022/04/04 07:37:10;;;;;;;2.10;1.90;;;23.70;55.60;;;;;;5030738;28;20203;-59
2022/04/04 07:39:41;;;;;;;2.05;1.52;;;23.70;55.70;;;;;;5029815;28;20265;-61
2022/04/04 07:42:12;;;;;;;2.00;1.70;;;23.70;55.80;;;;;;5032984;28;20817;-61
2022/04/04 07:44:44;;;;;;;1.60;1.50;;;23.60;55.70;;;;;;5031155;28;20224;-62
2022/04/04 07:47:14;;;;;;;1.67;1.58;;;23.60;55.80;;;;;;5024546;28;20204;-65
2022/04/04 07:49:45;;;;;;;1.70;1.60;;;23.60;55.80;;;;;;5010173;28;20311;-62
2022/04/04 07:52:16;;;;;;;2.03;1.80;;;23.60;55.80;;;;;;5010514;28;20279;-61
2022/04/04 07:54:46;;;;;;;2.53;1.70;;;23.60;55.80;;;;;;5010742;28;20618;-61
2022/04/04 07:57:18;;;;;;;1.52;1.42;;;23.50;55.90;;;;;;5011052;28;20280;-67
2022/04/04 07:59:51;;;;;;;1.80;1.70;;;23.50;55.90;;;;;;5011400;28;20217;-63
2022/04/04 08:02:22;;;;;;;2.13;1.60;;;23.50;55.90;;;;;;5011759;28;20196;-63
2022/04/04 08:04:52;;;;;;;1.90;1.80;;;23.50;56.00;;;;;;5011441;28;20307;-63
2022/04/04 08:07:22;;;;;;;1.70;1.60;;;23.50;56.00;;;;;;5010759;28;20279;-62
2022/04/04 08:09:53;;;;;;;1.95;1.85;;;23.50;56.00;;;;;;5009503;28;20238;-59
2022/04/04 08:12:26;;;;;;;2.38;1.60;;;23.50;55.90;;;;;;5025388;28;20200;-67
2022/04/04 08:14:59;;;;;;;1.90;1.80;;;23.40;55.90;;;;;;5031783;28;20283;-63
2022/04/04 08:17:30;;;;;;;1.63;1.52;;;23.40;55.80;;;;;;5031413;28;20196;-65
2022/04/04 08:20:01;;;;;;;1.92;1.80;;;23.40;55.90;;;;;;5030526;28;20781;-65
2022/04/04 08:22:31;;;;;;;1.67;1.58;;;23.40;55.90;;;;;;5030947;28;20725;-61
2022/04/04 08:25:02;;;;;;;2.15;1.95;;;23.40;55.90;;;;;;5031321;28;20314;-63
2022/04/04 08:27:32;;;;;;;1.70;1.60;;;23.40;55.90;;;;;;5015761;28;20288;-62
2022/04/04 08:30:06;;;;;;;1.80;1.70;;;23.40;55.90;;;;;;5033344;28;20283;-59
2022/04/04 08:32:38;;;;;;;2.85;1.60;;;23.30;55.90;;;;;;5031470;28;20200;-61
2022/04/04 08:35:09;;;;;;;2.85;2.10;;;23.30;55.10;;;;;;5031295;28;20564;-62
2022/04/04 08:37:41;;;;;;;1.95;1.70;;;23.30;54.90;;;;;;5027603;28;20215;-64
2022/04/04 08:40:14;;;;;;;2.70;2.05;;;23.20;55.00;;;;;;5011547;28;20204;-62
2022/04/04 08:42:45;;;;;;;4.22;2.30;;;23.20;55.00;;;;;;5026478;28;20879;-60
2022/04/04 08:45:17;;;;;;;3.22;2.30;;;23.20;55.20;;;;;;5030261;28;20227;-63
2022/04/04 08:47:47;;;;;;;5.07;2.35;;;23.20;55.40;;;;;;5030924;28;20204;-63
2022/04/04 08:50:18;;;;;;;3.88;2.40;;;23.10;55.40;;;;;;5030688;28;20288;-63
2022/04/04 08:52:51;;;;;;;3.03;2.05;;;23.10;55.50;;;;;;5030692;28;20201;-62
2022/04/04 08:55:22;;;;;;;2.63;2.40;;;23.10;55.60;;;;;;5030735;28;20345;-69
2022/04/04 09:00:38;;;;;;;4.43;2.22;;;23.10;55.70;;;;;;5974813;22;20945;-57
2022/04/04 09:03:13;;;;;;;4.10;2.17;;;23.10;55.70;;;;;;5008229;28;20593;-60
2022/04/04 09:06:03;;;;;;;3.53;2.50;;;23.10;55.70;;;;;;5003649;28;20204;-57
2022/04/04 09:08:47;;;;;;;2.97;2.10;;;23.10;55.80;;;;;;5007901;28;20684;-59
2022/04/04 09:11:18;;;;;;;4.65;2.45;;;23.10;55.70;;;;;;5009349;28;20197;-59
2022/04/04 09:14:03;;;;;;;2.85;2.00;;;23.10;55.80;;;;;;5008706;28;20279;-59
2022/04/04 09:16:37;;;;;;;2.95;2.20;;;23.00;55.80;;;;;;5009547;28;20279;-62
2022/04/04 09:19:08;;;;;;;3.05;2.40;;;23.00;55.80;;;;;;5006104;28;20850;-61
2022/04/04 09:21:38;;;;;;;4.75;2.45;;;23.00;55.80;;;;;;5003765;28;20193;-59
2022/04/04 09:24:11;;;;;;;3.65;2.15;;;23.00;55.90;;;;;;5007996;28;20302;-59
2022/04/04 09:26:42;;;;;;;2.33;2.10;;;23.00;55.90;;;;;;5009356;28;20193;-59
2022/04/04 09:29:19;;;;;;;2.65;2.05;;;23.00;55.90;;;;;;5008883;28;20303;-59
2022/04/04 09:32:05;;;;;;;4.72;2.00;;;22.90;55.80;;;;;;5008571;28;20203;-57
2022/04/04 09:34:57;;;;;;;2.50;2.00;;;22.90;55.80;;;;;;5008953;28;20197;-59
2022/04/04 09:37:30;;;;;;;2.78;2.25;;;22.90;56.00;;;;;;5008288;28;20193;-57
2022/04/04 09:40:13;;;;;;;4.25;2.47;;;22.90;55.80;;;;;;5008526;28;20254;-57
2022/04/04 09:42:44;;;;;;;3.05;2.35;;;22.90;55.90;;;;;;5009570;28;20224;-58
2022/04/04 09:45:16;;;;;;;3.35;2.47;;;22.90;55.90;;;;;;5008248;28;20774;-60
2022/04/04 09:47:56;;;;;;;2.90;2.20;;;22.90;55.90;;;;;;5008087;28;20288;-60
2022/04/04 09:50:38;;;;;;;2.40;2.15;;;22.90;56.00;;;;;;5008866;28;20280;-59
2022/04/04 09:53:09;;;;;;;2.33;2.03;;;22.90;56.00;;;;;;5008840;28;20446;-58
2022/04/04 09:55:41;;;;;;;2.85;2.25;;;22.90;56.00;;;;;;5008289;28;20684;-58
2022/04/04 09:58:14;;;;;;;2.50;2.30;;;22.80;56.00;;;;;;5025334;22;20766;-60
2022/04/04 10:00:46;;;;;;;2.83;2.28;;;22.80;56.00;;;;;;5008070;28;20215;-56
2022/04/04 10:03:20;;;;;;;2.58;2.20;;;22.80;56.00;;;;;;5008389;28;20255;-58
2022/04/04 10:05:53;;;;;;;2.40;2.00;;;22.80;56.00;;;;;;5008400;28;20651;-57
2022/04/04 10:08:28;;;;;;;6.13;2.58;;;22.80;56.10;;;;;;5008238;28;20295;-59
2022/04/04 10:10:58;;;;;;;2.20;2.05;;;22.80;56.10;;;;;;5009213;28;20283;-58
2022/04/04 10:13:29;;;;;;;2.28;2.05;;;22.80;56.00;;;;;;5008608;28;20201;-59
2022/04/04 10:16:00;;;;;;;2.30;2.10;;;22.80;56.10;;;;;;5008481;28;20322;-56
2022/04/04 10:18:35;;;;;;;2.75;2.30;;;22.70;56.10;;;;;;5008321;28;20332;-57
2022/04/04 10:21:06;;;;;;;3.38;2.53;;;22.70;56.10;;;;;;5008380;28;20189;-60
2022/04/04 10:23:38;;;;;;;2.63;2.42;;;22.70;56.10;;;;;;5009000;28;20615;-59
2022/04/04 10:26:10;;;;;;;2.65;2.30;;;22.70;56.10;;;;;;5008013;28;20197;-59
2022/04/04 10:28:43;;;;;;;2.25;1.85;;;22.70;56.10;;;;;;5005429;28;20296;-57
2022/04/04 10:31:18;;;;;;;2.60;2.40;;;22.70;56.10;;;;;;5005253;28;20276;-59
2022/04/04 10:33:52;;;;;;;2.58;2.20;;;22.70;56.10;;;;;;5008102;28;20287;-57
2022/04/04 10:36:25;;;;;;;2.15;1.95;;;22.70;56.10;;;;;;5008378;28;20192;-60
2022/04/04 10:38:57;;;;;;;2.13;1.92;;;22.70;56.10;;;;;;5008918;28;20295;-58
2022/04/04 10:41:34;;;;;;;2.88;2.22;;;22.60;56.10;;;;;;5010309;28;20920;-59
2022/04/04 10:44:07;;;;;;;3.10;2.45;;;22.60;56.10;;;;;;5009322;28;20285;-55
2022/04/04 10:46:37;;;;;;;3.13;2.42;;;22.60;56.10;;;;;;5007519;28;20189;-57
2022/04/04 10:49:10;;;;;;;2.50;2.28;;;22.60;56.20;;;;;;4988239;28;20261;-60
2022/04/04 10:51:41;;;;;;;4.07;2.40;;;22.60;56.20;;;;;;4988282;28;20309;-57
2022/04/04 10:54:12;;;;;;;2.60;2.30;;;22.60;56.20;;;;;;4988587;28;20560;-54
2022/04/04 10:56:44;;;;;;;2.97;2.42;;;22.60;56.20;;;;;;4988622;28;20204;-58
2022/04/04 10:59:29;;;;;;;2.80;2.30;;;22.50;56.20;;;;;;5037889;22;20227;-59
2022/04/04 11:02:02;;;;;;;2.97;2.05;;;22.50;56.20;;;;;;5028905;28;20287;-59
2022/04/04 11:04:36;;;;;;;2.50;2.30;;;22.50;56.20;;;;;;5028820;28;20278;-63
2022/04/04 11:10:06;;;;;;;3.20;2.33;;;22.50;56.30;;;;;;5010935;28;20688;-61
2022/04/04 11:12:57;;;;;;;3.40;2.30;;;22.50;56.90;;;;;;5031363;28;20211;-63
2022/04/04 11:15:49;;;;;;;3.97;2.47;;;22.50;56.30;;;;;;5030328;28;20203;-61
2022/04/04 11:18:19;;;;;;;2.58;1.83;;;22.50;56.30;;;;;;5029462;28;20564;-61
2022/04/04 11:20:59;;;;;;;2.65;1.98;;;22.50;56.30;;;;;;5031097;28;20279;-62
2022/04/04 11:23:34;;;;;;;2.72;2.40;;;22.40;56.30;;;;;;5031081;28;20250;-62
2022/04/04 11:26:08;;;;;;;2.65;2.30;;;22.50;56.30;;;;;;5030998;28;20338;-62
2022/04/04 11:28:42;;;;;;;2.50;2.00;;;22.40;56.30;;;;;;5031012;28;20760;-59
2022/04/04 11:31:13;;;;;;;2.47;2.03;;;22.40;56.30;;;;;;5031321;28;20199;-62
2022/04/04 11:33:54;;;;;;;2.70;2.50;;;22.40;56.40;;;;;;5030961;28;20212;-61
2022/04/04 11:36:30;;;;;;;2.55;2.03;;;22.40;56.40;;;;;;5031215;28;20199;-62
2022/04/04 11:39:07;;;;;;;2.85;2.13;;;22.40;56.40;;;;;;5030229;28;20303;-59
2022/04/04 11:41:46;;;;;;;2.53;2.10;;;22.40;56.40;;;;;;5030784;28;20196;-59
2022/04/04 11:44:26;;;;;;;2.10;1.98;;;22.40;56.40;;;;;;5029775;28;20203;-59
2022/04/04 11:47:08;;;;;;;2.15;2.03;;;22.30;56.40;;;;;;5029931;28;20376;-61
2022/04/04 11:49:39;;;;;;;2.00;1.90;;;22.30;56.40;;;;;;5030068;28;20267;-62
2022/04/04 11:52:16;;;;;;;2.45;2.17;;;22.40;56.50;;;;;;5030831;28;20656;-60
2022/04/04 11:54:49;;;;;;;2.70;2.03;;;22.30;56.50;;;;;;5030975;28;20666;-60
2022/04/04 11:57:21;;;;;;;2.38;1.90;;;22.30;56.50;;;;;;5030635;28;20207;-62
2022/04/04 11:59:53;;;;;;;2.63;2.10;;;22.30;56.50;;;;;;5030346;28;21542;-60
2022/04/04 12:02:25;;;;;;;2.40;2.20;;;22.30;56.50;;;;;;5029600;28;20607;-60
2022/04/04 12:04:57;;;;;;;2.22;2.03;;;22.30;56.50;;;;;;5030246;28;20224;-61
2022/04/04 12:07:33;;;;;;;2.60;2.40;;;22.30;56.60;;;;;;5030614;28;20188;-62
2022/04/04 12:10:04;;;;;;;3.35;2.40;;;22.20;56.50;;;;;;5029940;28;20628;-61
2022/04/04 12:12:34;;;;;;;2.33;1.90;;;22.20;56.50;;;;;;5030043;28;20280;-61
2022/04/04 12:15:05;;;;;;;2.70;2.08;;;22.20;56.50;;;;;;5029689;28;20239;-60
2022/04/04 12:17:35;;;;;;;2.42;2.10;;;22.20;56.50;;;;;;5029922;28;20672;-61
2022/04/04 12:20:13;;;;;;;2.40;2.20;;;22.20;56.50;;;;;;5030167;28;20228;-62
2022/04/04 12:25:32;;;;;;;2.88;2.30;;;22.20;56.50;;;;;;5028172;28;20265;-62
2022/04/04 12:28:04;;;;;;;2.30;2.10;;;22.20;56.50;;;;;;5027953;28;20295;-61
2022/04/04 12:30:36;;;;;;;2.95;2.38;;;22.20;56.60;;;;;;5028388;28;20659;-60
2022/04/04 12:33:14;;;;;;;2.58;2.10;;;22.20;56.60;;;;;;5028877;28;20204;-59
2022/04/04 12:35:46;;;;;;;2.40;2.20;;;22.10;56.60;;;;;;5028167;28;20767;-60
2022/04/04 12:38:29;;;;;;;2.30;2.10;;;22.10;56.60;;;;;;5030183;28;20299;-60
2022/04/04 12:41:11;;;;;;;2.50;2.30;;;22.10;56.60;;;;;;5028824;28;20275;-61
2022/04/04 12:43:42;;;;;;;2.28;2.08;;;22.10;56.60;;;;;;5021046;28;20299;-62
2022/04/04 12:46:27;;;;;;;2.28;2.08;;;22.10;56.60;;;;;;5013048;28;20319;-59
2022/04/04 12:49:09;;;;;;;2.20;1.95;;;22.10;56.70;;;;;;5031248;28;20235;-60
2022/04/04 12:51:40;;;;;;;2.33;1.95;;;22.10;56.70;;;;;;5031412;28;20642;-60
2022/04/04 12:54:12;;;;;;;1.98;1.83;;;22.00;56.60;;;;;;5030774;28;20624;-63
2022/04/04 12:56:52;;;;;;;2.13;1.98;;;22.10;56.70;;;;;;5031219;28;20323;-62
2022/04/04 12:59:25;;;;;;;3.45;2.40;;;22.00;56.60;;;;;;5015803;28;20333;-61
2022/04/04 13:02:07;;;;;;;2.63;2.40;;;22.00;56.60;;;;;;5010749;28;20672;-63
2022/04/04 13:04:38;;;;;;;2.13;1.95;;;22.00;57.20;;;;;;5011129;28;20592;-60
2022/04/04 13:07:16;;;;;;;2.38;2.17;;;22.00;56.60;;;;;;5011134;28;20287;-63
2022/04/04 13:09:56;;;;;;;2.65;2.45;;;22.00;56.60;;;;;;5010822;28;20902;-63
2022/04/04 13:12:30;;;;;;;2.83;2.20;;;22.00;56.60;;;;;;5010304;28;20275;-64
2022/04/04 13:15:01;;;;;;;3.20;2.20;;;22.00;56.60;;;;;;5027492;28;20195;-64
2022/04/04 13:17:39;;;;;;;2.00;1.90;;;22.00;56.70;;;;;;5030622;28;20207;-62
2022/04/04 13:20:12;;;;;;;2.17;1.98;;;22.00;56.70;;;;;;5030366;28;20283;-59
2022/04/04 13:22:43;;;;;;;2.33;2.13;;;22.00;56.70;;;;;;5030933;28;20782;-62
2022/04/04 13:25:16;;;;;;;2.78;2.22;;;22.00;56.80;;;;;;5031161;28;20619;-63
2022/04/04 13:27:46;;;;;;;2.10;1.90;;;21.90;56.70;;;;;;5030361;28;20283;-64